Gerber, California
Current Conditions -  °F | °C
As of 7:22 PM on Friday 21 Nov 2014 (Local Time) from KRBL Reporting Station
Overcast Overcast  
Wind Chill: 12°   Ceiling: 1300
Heat Index: 12°   Visibility: 10mi
Dew Point: 10°   Wind: 8mph
Humidity: 89%   Direction: 170°S
Pressure: 30.08"   Gusts: NA
Location:  40.06°N, 122.15°W
Report Text: KRBL 220322Z AUTO 17007KT 10SM OVC013 12/10 A3008 RMK AO2 T01170100
Loading
Personal Weather Stations






























Interactive Weather Map New forecast layout! Learn more

10-Day Weather Forecast

Advertisements
Track Severe Weather on mobile